Pagina principale
METAR-TAF:

METAR-TAF

Aeroporti :

Aeroporto Internazionale del Kuwait

Madinat al-Kuwait, Kuwait

latitudine: 29-13N, longitudine: 047-59E, altezza: 55 m

Osservazione

Il bollettino è stato emesso 22 minuti fa, alle 03:00 UTC
Vento 5 kt da ovest
Temperature 28°C
Umidità 28%
Pressione 1007 hPa
Visibilità: 7000 m
Cielo sereno

METAR: OKBK 270300Z 27005KT 7000 SKC 28/08 Q1007 NOSIG

Ora: 06:22 (03:22 UTC)

Previsione

Il bollettino è stato emesso 16 ore e 37 minuti fa, alle 10:45 UTC
Previsione valida dal 26 alle 12 UTC al 27 alle 18 UTC
Vento 12 kt da nord/nord-ovest
Visibilità: 7000 m
Cielo sereno
Temporaneamente
dal 27 alle 00 UTC al 27 alle 09 UTC
Vento 3 kt da direzioni variabili

TAF: OKBK 261045Z 2612/2718 34012KT 7000 SKC TEMPO 2700/2709 VRB03KT

Osservazioni e previsioni meteorologiche di più di 4000 aeroporti (messaggi METAR e TAF).

Le stazioni disponibili sono rappresentate dai dischi gialli e rossi sulla carta.

Puntare il mouse per vedere il nome della stazione.

Clicca sopra per visualizzare le osservazioni e previsioni meteorologiche.

Per cambiare la mappa : fare clic sui pulsanti verdi con una croce nera per ingrandire, il pulsante verde con un trattino per diminuire, o sulla freccia verde per le mappe adiacenti.


METAR-TAF: